createdAt,value
2022-07-28T00:01:18.450Z,101388.53
2022-07-28T00:04:24.583Z,101400.84
2022-07-28T00:07:27.904Z,101395.31
2022-07-28T00:10:32.252Z,101399.75
2022-07-28T00:13:35.316Z,101404.91
2022-07-28T00:16:38.781Z,101401.78
2022-07-28T00:19:43.404Z,101401.66
2022-07-28T00:22:46.774Z,101401.88
2022-07-28T00:25:49.893Z,101395.44
2022-07-28T00:28:52.929Z,101401.88
2022-07-28T00:31:56.095Z,101398.56
2022-07-28T00:35:00.659Z,101406.06
2022-07-28T00:38:05.446Z,101396.75
2022-07-28T00:41:12.182Z,101398.88
2022-07-28T00:44:15.776Z,101405.69
2022-07-28T00:47:20.139Z,101399.50
2022-07-28T00:50:24.527Z,101401.53
2022-07-28T00:53:27.547Z,101407.84
2022-07-28T00:56:30.609Z,101400.81
2022-07-28T00:59:34.052Z,101398.88
2022-07-28T01:02:37.355Z,101397.41
2022-07-28T01:05:54.031Z,101395.47
2022-07-28T01:09:07.865Z,101390.78
2022-07-28T01:12:21.779Z,101390.69
2022-07-28T01:15:31.387Z,101393.28
2022-07-28T01:18:43.611Z,101395.16
2022-07-28T01:21:49.800Z,101388.38
2022-07-28T01:25:04.966Z,101389.34
2022-07-28T01:28:25.904Z,101384.88
2022-07-28T01:31:39.186Z,101386.28
2022-07-28T01:34:50.499Z,101390.09
2022-07-28T01:38:00.107Z,101388.84
2022-07-28T01:41:05.497Z,101390.75
2022-07-28T01:44:15.066Z,101387.63
2022-07-28T01:47:21.215Z,101383.78
2022-07-28T01:50:27.008Z,101384.00
2022-07-28T01:53:37.687Z,101380.16
2022-07-28T01:56:44.135Z,101376.72
2022-07-28T01:59:49.208Z,101365.75
2022-07-28T02:03:00.965Z,101359.19
2022-07-28T02:06:06.495Z,101364.97
2022-07-28T02:09:11.311Z,101360.38
2022-07-28T02:12:16.856Z,101360.00
2022-07-28T02:15:22.939Z,101356.81
2022-07-28T02:18:28.568Z,101353.59
2022-07-28T02:21:33.482Z,101345.97
2022-07-28T02:24:42.098Z,101350.38
2022-07-28T02:27:50.520Z,101350.47
2022-07-28T02:31:02.928Z,101342.84
2022-07-28T02:34:09.610Z,101338.47
2022-07-28T02:37:17.066Z,101336.28
2022-07-28T02:40:25.486Z,101335.75
2022-07-28T02:43:49.777Z,101344.56
2022-07-28T02:46:56.390Z,101341.63
2022-07-28T02:50:04.896Z,101339.94
2022-07-28T02:53:14.904Z,101334.00
2022-07-28T02:56:19.839Z,101339.72
2022-07-28T02:59:24.590Z,101341.50
2022-07-28T03:02:31.008Z,101333.16
2022-07-28T03:05:36.002Z,101332.19
2022-07-28T03:08:39.305Z,101338.50
2022-07-28T03:11:53.560Z,101340.78
2022-07-28T03:14:56.754Z,101336.41
2022-07-28T03:18:00.538Z,101349.56
2022-07-28T03:21:05.201Z,101342.13
2022-07-28T03:24:10.957Z,101344.53
2022-07-28T03:27:22.988Z,101353.22
2022-07-28T03:30:30.674Z,101349.13
2022-07-28T03:33:34.527Z,101353.75
2022-07-28T03:36:43.981Z,101361.78
2022-07-28T03:39:49.526Z,101353.94
2022-07-28T03:42:53.988Z,101345.47
2022-07-28T03:45:57.142Z,101355.59
2022-07-28T03:49:00.309Z,101355.00
2022-07-28T03:52:05.138Z,101351.84
2022-07-28T03:55:09.754Z,101343.50
2022-07-28T03:58:12.832Z,101355.84
2022-07-28T04:01:16.023Z,101347.06
2022-07-28T04:04:19.176Z,101351.03
2022-07-28T04:07:23.640Z,101358.75
2022-07-28T04:10:27.118Z,101352.38
2022-07-28T04:13:32.062Z,101348.41
2022-07-28T04:16:36.145Z,101350.06
2022-07-28T04:19:39.456Z,101353.44
2022-07-28T04:22:44.234Z,101351.13
2022-07-28T04:25:47.513Z,101353.22
2022-07-28T04:28:50.594Z,101352.69
2022-07-28T04:31:53.577Z,101357.91
2022-07-28T04:34:57.380Z,101353.53
2022-07-28T04:38:02.276Z,101361.47
2022-07-28T04:41:05.816Z,101362.88
2022-07-28T04:44:12.380Z,101364.38
2022-07-28T04:47:16.498Z,101372.31
2022-07-28T04:50:21.440Z,101372.31
2022-07-28T04:53:35.160Z,101384.00
2022-07-28T04:56:38.512Z,101384.84
2022-07-28T04:59:41.669Z,101392.16
2022-07-28T05:02:49.028Z,101392.44
2022-07-28T05:05:54.530Z,101396.69
2022-07-28T05:08:59.274Z,101398.75
2022-07-28T05:12:02.259Z,101404.16
2022-07-28T05:15:05.803Z,101401.22
2022-07-28T05:18:09.030Z,101414.38
2022-07-28T05:21:12.872Z,101411.78
2022-07-28T05:24:19.543Z,101416.47
2022-07-28T05:27:22.645Z,101420.53
2022-07-28T05:30:25.745Z,101421.28
2022-07-28T05:33:31.939Z,101433.63
2022-07-28T05:36:36.525Z,101439.84
2022-07-28T05:39:40.922Z,101449.69
2022-07-28T05:42:44.808Z,101448.53
2022-07-28T05:45:48.560Z,101454.25
2022-07-28T05:48:51.943Z,101471.53
2022-07-28T05:51:54.993Z,101471.91
2022-07-28T05:54:59.503Z,101473.81
2022-07-28T05:58:02.661Z,101477.19
2022-07-28T06:01:06.079Z,101480.16
2022-07-28T06:04:27.689Z,101477.75
2022-07-28T06:07:43.297Z,101485.19
2022-07-28T06:11:02.022Z,101482.53
2022-07-28T06:14:05.195Z,101479.53
2022-07-28T06:17:08.287Z,101476.38
2022-07-28T06:20:13.617Z,101485.38
2022-07-28T06:23:19.179Z,101494.47
2022-07-28T06:26:23.934Z,101497.97
2022-07-28T06:29:27.190Z,101495.41
2022-07-28T06:32:30.183Z,101496.84
2022-07-28T06:35:33.705Z,101503.59
2022-07-28T06:38:51.954Z,101512.25
2022-07-28T06:41:56.297Z,101510.16
2022-07-28T06:45:00.173Z,101508.84
2022-07-28T06:48:03.375Z,101506.66
2022-07-28T06:51:06.709Z,101512.53
2022-07-28T06:54:11.617Z,101507.03
2022-07-28T06:57:16.909Z,101512.84
2022-07-28T07:00:20.061Z,101516.09
2022-07-28T07:03:23.265Z,101507.06
2022-07-28T07:06:26.388Z,101512.75
2022-07-28T07:09:29.776Z,101507.44
2022-07-28T07:12:35.759Z,101507.44
2022-07-28T07:15:38.874Z,101508.72
2022-07-28T07:18:41.894Z,101502.94
2022-07-28T07:21:44.989Z,101506.53
2022-07-28T07:24:50.483Z,101515.97
2022-07-28T07:27:58.034Z,101505.59
2022-07-28T07:31:01.164Z,101501.56
2022-07-28T07:34:04.874Z,101506.13
2022-07-28T07:37:12.034Z,101517.41
2022-07-28T07:40:15.136Z,101507.25
2022-07-28T07:43:19.788Z,101512.44
2022-07-28T07:46:23.273Z,101516.69
2022-07-28T07:49:26.752Z,101521.53
2022-07-28T07:52:50.094Z,101510.47
2022-07-28T07:55:53.234Z,101516.53
2022-07-28T07:58:58.721Z,101520.69
2022-07-28T08:02:01.970Z,101522.03
2022-07-28T08:05:06.154Z,101518.69
2022-07-28T08:08:11.851Z,101522.81
2022-07-28T08:11:14.862Z,101513.41
2022-07-28T08:14:19.411Z,101516.31
2022-07-28T08:17:25.857Z,101517.19
2022-07-28T08:20:30.397Z,101517.16
2022-07-28T08:23:33.391Z,101515.91
2022-07-28T08:26:36.437Z,101524.31
2022-07-28T08:29:40.857Z,101512.38
2022-07-28T08:32:44.074Z,101520.47
2022-07-28T08:36:00.105Z,101512.94
2022-07-28T08:39:03.801Z,101521.25
2022-07-28T08:42:16.110Z,101522.53
2022-07-28T08:45:21.849Z,101523.81
2022-07-28T08:48:29.530Z,101521.66
2022-07-28T08:51:32.773Z,101529.78
2022-07-28T08:54:36.238Z,101522.25
2022-07-28T08:57:43.813Z,101517.09
2022-07-28T09:00:49.177Z,101528.16
2022-07-28T09:03:53.043Z,101522.47
2022-07-28T09:06:57.052Z,101522.78
2022-07-28T09:10:03.273Z,101521.88
2022-07-28T09:13:06.508Z,101529.00
2022-07-28T09:16:11.339Z,101524.56
2022-07-28T09:19:15.913Z,101521.97
2022-07-28T09:22:18.962Z,101523.09
2022-07-28T09:25:22.696Z,101525.63
2022-07-28T09:28:25.997Z,101520.78
2022-07-28T09:31:31.473Z,101513.38
2022-07-28T09:34:42.360Z,101513.56
2022-07-28T09:37:46.420Z,101510.00
2022-07-28T09:41:00.820Z,101518.22
2022-07-28T09:44:03.951Z,101518.34
2022-07-28T09:47:24.043Z,101511.88
2022-07-28T09:50:30.241Z,101517.41
2022-07-28T09:53:33.408Z,101524.53
2022-07-28T09:56:37.777Z,101516.97
2022-07-28T09:59:50.544Z,101507.34
2022-07-28T10:02:58.402Z,101505.88
2022-07-28T10:06:05.150Z,101500.72
2022-07-28T10:09:12.583Z,101498.56
2022-07-28T10:12:18.047Z,101506.72
2022-07-28T10:15:46.824Z,101503.91
2022-07-28T10:18:55.995Z,101503.72
2022-07-28T10:21:59.865Z,101511.16
2022-07-28T10:25:07.411Z,101503.84
2022-07-28T10:28:18.276Z,101513.00
2022-07-28T10:31:34.596Z,101498.06
2022-07-28T10:34:45.615Z,101498.41
2022-07-28T10:38:01.105Z,101505.38
2022-07-28T10:41:08.508Z,101495.41
2022-07-28T10:44:15.120Z,101494.91
2022-07-28T10:47:20.758Z,101490.91
2022-07-28T10:50:26.289Z,101483.19
2022-07-28T10:53:39.611Z,101487.06
2022-07-28T10:56:51.312Z,101482.00
2022-07-28T11:00:13.108Z,101499.97
2022-07-28T11:03:38.036Z,101495.19
2022-07-28T11:06:45.798Z,101495.84
2022-07-28T11:09:49.745Z,101489.19
2022-07-28T11:12:54.830Z,101486.41
2022-07-28T11:16:19.186Z,101490.88
2022-07-28T11:19:36.754Z,101489.50
2022-07-28T11:22:48.025Z,101483.00
2022-07-28T11:26:38.451Z,101480.38
2022-07-28T11:29:47.551Z,101479.28
2022-07-28T11:33:00.140Z,101472.91
2022-07-28T11:36:03.363Z,101481.31
2022-07-28T11:39:27.862Z,101480.19
2022-07-28T11:42:33.802Z,101473.88
2022-07-28T11:45:39.900Z,101469.38
2022-07-28T11:48:46.729Z,101465.06
2022-07-28T11:52:24.309Z,101475.50
2022-07-28T11:55:55.455Z,101465.06
2022-07-28T11:58:59.847Z,101467.88
2022-07-28T12:02:02.881Z,101464.13
2022-07-28T12:05:15.718Z,101475.78
2022-07-28T12:08:18.819Z,101465.41
2022-07-28T12:11:27.463Z,101464.09
2022-07-28T12:14:33.837Z,101452.84
2022-07-28T12:17:40.581Z,101459.94
2022-07-28T12:20:48.495Z,101455.38
2022-07-28T12:23:55.422Z,101448.88
2022-07-28T12:27:02.152Z,101451.00
2022-07-28T12:30:06.733Z,101445.59
2022-07-28T12:33:24.966Z,101435.28
2022-07-28T12:36:32.218Z,101435.16
2022-07-28T12:39:38.499Z,101438.56
2022-07-28T12:42:45.353Z,101438.56
2022-07-28T12:45:55.846Z,101440.13
2022-07-28T12:49:01.351Z,101430.06
2022-07-28T12:52:21.604Z,101433.13
2022-07-28T12:55:29.419Z,101427.59
2022-07-28T12:58:36.073Z,101431.63
2022-07-28T13:01:50.663Z,101424.78
2022-07-28T13:04:53.882Z,101425.47
2022-07-28T13:08:02.419Z,101427.22
2022-07-28T13:11:09.781Z,101425.00
2022-07-28T13:14:17.814Z,101426.94
2022-07-28T13:17:26.198Z,101423.75
2022-07-28T13:20:29.749Z,101421.72
2022-07-28T13:23:33.015Z,101422.97
2022-07-28T13:26:36.015Z,101421.69
2022-07-28T13:29:40.728Z,101419.09
2022-07-28T13:32:44.202Z,101425.00
2022-07-28T13:35:48.031Z,101414.53
2022-07-28T13:38:51.182Z,101420.25
2022-07-28T13:41:57.465Z,101409.78
2022-07-28T13:45:03.251Z,101412.06
2022-07-28T13:48:08.642Z,101406.03
2022-07-28T13:51:13.171Z,101414.09
2022-07-28T13:54:18.692Z,101403.81
2022-07-28T13:57:22.277Z,101405.88
2022-07-28T14:00:27.124Z,101406.25
2022-07-28T14:03:55.703Z,101402.59
2022-07-28T14:06:54.546Z,101407.50
2022-07-28T14:09:58.385Z,101401.63
2022-07-28T14:13:02.710Z,101397.81
2022-07-28T14:16:12.346Z,101400.00
2022-07-28T14:19:23.042Z,101397.16
2022-07-28T14:22:31.060Z,101383.38
2022-07-28T14:25:48.827Z,101383.19
2022-07-28T14:28:52.776Z,101381.53
2022-07-28T14:31:59.217Z,101383.03
2022-07-28T14:35:02.735Z,101376.78
2022-07-28T14:38:50.310Z,101369.09
2022-07-28T14:41:31.809Z,101366.56
2022-07-28T14:44:35.316Z,101369.88
2022-07-28T14:47:44.658Z,101369.97
2022-07-28T14:50:48.474Z,101358.75
2022-07-28T14:53:52.340Z,101356.91
2022-07-28T14:56:55.583Z,101361.91
2022-07-28T14:59:59.545Z,101358.34
2022-07-28T15:03:05.093Z,101358.97
2022-07-28T15:06:08.219Z,101361.38
2022-07-28T15:09:11.412Z,101348.16
2022-07-28T15:12:14.429Z,101357.88
2022-07-28T15:15:17.615Z,101357.38
2022-07-28T15:18:22.083Z,101353.16
2022-07-28T15:21:31.915Z,101356.44
2022-07-28T15:24:41.402Z,101350.78
2022-07-28T15:27:48.818Z,101350.06
2022-07-28T15:30:52.974Z,101354.34
2022-07-28T15:34:00.832Z,101352.25
2022-07-28T15:37:04.098Z,101349.28
2022-07-28T15:40:08.491Z,101349.00
2022-07-28T15:43:11.454Z,101348.06
2022-07-28T15:46:15.248Z,101348.59
2022-07-28T15:49:19.795Z,101343.19
2022-07-28T15:52:22.850Z,101342.44
2022-07-28T15:55:26.063Z,101342.00
2022-07-28T15:58:29.217Z,101340.13
2022-07-28T16:01:32.249Z,101336.59
2022-07-28T16:04:36.621Z,101336.53
2022-07-28T16:07:50.323Z,101334.31
2022-07-28T16:10:54.430Z,101326.72
2022-07-28T16:13:58.222Z,101328.53
2022-07-28T16:17:01.665Z,101332.47
2022-07-28T16:20:10.308Z,101331.13
2022-07-28T16:23:13.543Z,101328.53
2022-07-28T16:26:16.574Z,101325.25
2022-07-28T16:29:19.818Z,101312.88
2022-07-28T16:32:22.830Z,101316.56
2022-07-28T16:35:32.586Z,101325.88
2022-07-28T16:38:36.184Z,101327.47
2022-07-28T16:41:46.671Z,101327.25
2022-07-28T16:44:51.122Z,101331.59
2022-07-28T16:47:54.265Z,101333.16
2022-07-28T16:50:58.725Z,101321.53
2022-07-28T16:54:01.985Z,101327.53
2022-07-28T16:57:05.753Z,101325.19
2022-07-28T17:00:12.281Z,101320.16
2022-07-28T17:03:16.335Z,101328.16
2022-07-28T17:06:20.814Z,101322.44
2022-07-28T17:09:23.835Z,101322.72
2022-07-28T17:12:27.115Z,101321.03
2022-07-28T17:15:30.217Z,101318.22
2022-07-28T17:18:35.029Z,101317.91
2022-07-28T17:21:40.006Z,101323.16
2022-07-28T17:24:43.673Z,101320.91
2022-07-28T17:27:48.500Z,101319.59
2022-07-28T17:30:51.598Z,101320.22
2022-07-28T17:33:54.646Z,101324.09
2022-07-28T17:36:59.018Z,101328.63
2022-07-28T17:40:04.602Z,101334.31
2022-07-28T17:43:08.798Z,101336.78
2022-07-28T17:46:11.827Z,101336.06
2022-07-28T17:49:16.518Z,101331.06
2022-07-28T17:52:22.055Z,101330.03
2022-07-28T17:55:57.872Z,101329.41
2022-07-28T17:59:02.322Z,101333.56
2022-07-28T18:02:05.652Z,101330.72
2022-07-28T18:05:11.295Z,101328.34
2022-07-28T18:08:17.183Z,101329.19
2022-07-28T18:11:20.229Z,101324.94
2022-07-28T18:14:23.344Z,101320.81
2022-07-28T18:17:27.071Z,101321.44
2022-07-28T18:20:30.481Z,101324.91
2022-07-28T18:23:35.509Z,101320.56
2022-07-28T18:26:38.556Z,101330.50
2022-07-28T18:29:41.685Z,101330.91
2022-07-28T18:32:45.007Z,101326.41
2022-07-28T18:35:48.097Z,101324.72
2022-07-28T18:38:52.392Z,101321.13
2022-07-28T18:41:55.955Z,101322.94
2022-07-28T18:44:59.075Z,101325.16
2022-07-28T18:48:04.225Z,101332.47
2022-07-28T18:51:07.300Z,101325.19
2022-07-28T18:54:11.730Z,101324.56
2022-07-28T18:57:14.890Z,101323.91
2022-07-28T19:00:18.277Z,101320.56
2022-07-28T19:03:21.438Z,101321.38
2022-07-28T19:06:24.529Z,101325.88
2022-07-28T19:09:29.020Z,101328.03
2022-07-28T19:12:40.066Z,101326.00
2022-07-28T19:15:43.106Z,101340.72
2022-07-28T19:18:46.288Z,101335.34
2022-07-28T19:21:49.934Z,101339.41
2022-07-28T19:24:55.061Z,101339.75
2022-07-28T19:27:58.787Z,101336.53
2022-07-28T19:31:10.241Z,101338.53
2022-07-28T19:34:14.163Z,101339.19
2022-07-28T19:37:18.755Z,101336.88
2022-07-28T19:40:25.147Z,101334.56
2022-07-28T19:43:28.188Z,101346.13
2022-07-28T19:46:31.256Z,101338.13
2022-07-28T19:49:34.307Z,101336.44
2022-07-28T19:52:37.896Z,101338.34
2022-07-28T19:55:43.891Z,101335.41
2022-07-28T19:58:55.136Z,101346.63
2022-07-28T20:01:58.624Z,101354.56
2022-07-28T20:05:01.664Z,101351.53
2022-07-28T20:08:05.171Z,101348.50
2022-07-28T20:11:09.729Z,101365.88
2022-07-28T20:14:12.961Z,101364.94
2022-07-28T20:17:29.812Z,101363.69
2022-07-28T20:20:39.238Z,101358.53
2022-07-28T20:23:42.445Z,101360.66
2022-07-28T20:26:46.958Z,101364.59
2022-07-28T20:29:50.251Z,101368.50
2022-07-28T20:32:53.326Z,101372.66
2022-07-28T20:35:56.634Z,101365.28
2022-07-28T20:39:00.643Z,101373.88
2022-07-28T20:42:07.784Z,101371.63
2022-07-28T20:45:11.451Z,101371.00
2022-07-28T20:48:15.580Z,101369.44
2022-07-28T20:51:18.901Z,101372.31
2022-07-28T20:54:22.190Z,101370.31
2022-07-28T20:57:26.614Z,101370.88
2022-07-28T21:00:29.732Z,101377.81
2022-07-28T21:03:32.726Z,101372.59
2022-07-28T21:06:36.172Z,101371.16
2022-07-28T21:09:40.910Z,101369.28
2022-07-28T21:12:45.290Z,101374.84
2022-07-28T21:15:48.415Z,101375.47
2022-07-28T21:18:51.736Z,101385.75
2022-07-28T21:21:54.775Z,101378.78
2022-07-28T21:24:59.105Z,101378.03
2022-07-28T21:28:21.159Z,101380.69
2022-07-28T21:31:24.701Z,101383.94
2022-07-28T21:34:28.034Z,101381.13
2022-07-28T21:37:34.674Z,101387.53
2022-07-28T21:40:38.980Z,101394.66
2022-07-28T21:43:43.453Z,101392.88
2022-07-28T21:46:46.552Z,101392.09
2022-07-28T21:49:49.737Z,101390.19
2022-07-28T21:52:52.875Z,101398.03
2022-07-28T21:55:57.238Z,101409.25
2022-07-28T21:59:02.337Z,101407.38
2022-07-28T22:02:08.570Z,101415.28
2022-07-28T22:05:11.733Z,101413.28
2022-07-28T22:08:14.806Z,101416.19
2022-07-28T22:11:17.878Z,101412.47
2022-07-28T22:14:25.416Z,101411.38
2022-07-28T22:17:28.644Z,101412.38
2022-07-28T22:20:31.737Z,101414.31
2022-07-28T22:23:34.932Z,101411.44
2022-07-28T22:26:37.920Z,101421.16
2022-07-28T22:29:43.447Z,101418.66
2022-07-28T22:32:53.320Z,101420.88
2022-07-28T22:35:56.482Z,101421.84
2022-07-28T22:38:59.887Z,101423.00
2022-07-28T22:42:03.686Z,101427.81
2022-07-28T22:45:10.022Z,101441.88
2022-07-28T22:48:13.386Z,101442.13
2022-07-28T22:51:16.835Z,101443.25
2022-07-28T22:54:19.927Z,101437.69
2022-07-28T22:57:23.895Z,101439.63
2022-07-28T23:00:28.212Z,101441.34
2022-07-28T23:03:32.954Z,101440.50
2022-07-28T23:06:36.221Z,101445.06
2022-07-28T23:09:39.278Z,101445.75
2022-07-28T23:12:42.712Z,101448.66
2022-07-28T23:15:47.118Z,101445.75
2022-07-28T23:18:50.126Z,101442.44
2022-07-28T23:21:53.176Z,101452.53
2022-07-28T23:24:56.239Z,101448.22
2022-07-28T23:27:59.353Z,101444.88
2022-07-28T23:31:03.979Z,101444.59
2022-07-28T23:34:06.959Z,101435.31
2022-07-28T23:37:10.164Z,101445.00
2022-07-28T23:40:14.435Z,101443.72
2022-07-28T23:43:17.475Z,101447.16
2022-07-28T23:46:22.242Z,101437.19
2022-07-28T23:49:25.472Z,101432.88
2022-07-28T23:52:29.133Z,101438.41
2022-07-28T23:55:32.223Z,101442.31
2022-07-28T23:58:35.829Z,101433.97
